Super Servant 4 — PJPO — position and weather

sailwx.info

Track history (hours):
 
Tides and Currents Weather Stations Pressure Air Temp Water Temp Dewpoint Dewpoint Depression Visibility Wind Speed Wind Dir Waves Ship Positions

Super Servant 4

Last reported at 2016-Dec-03 15:32 UTC. Time now 2016-Dec-08 02:10 UTC.
Position N 33°24' W 009°49'.

Length 139 m; beam 32 m.

Type: Cargo ship. MMSI: 306157000.

Date/timePositionNaut miles runAvg speedWind from/ knotsBaromVisibWave heightAir tempDewpointWater temp
2016-Dec-03 15:32N 33°24' W 009°49'9 9.4
2016-Dec-03 14:33N 33°27' W 009°39'9 9.4
2016-Dec-03 13:33N 33°30' W 009°28'24510.6
2016-Dec-02 14:21N 35°59' W 005°31'910.8
2016-Dec-02 13:33N 36°01' W 005°21'12011.5
2016-Dec-02 03:03N 36°21' W 002°54'711.6
2016-Dec-02 02:29N 36°22' W 002°46'1111.7
2016-Dec-02 01:30N 36°23' W 002°32'1212.3
2016-Dec-02 00:32N 36°25' W 002°17'1313.1
2016-Dec-01 23:31N 36°31' W 002°02'2311.0
2016-Dec-01 21:24N 36°45' W 001°39'22311.6
2016-Dec-01 02:14N 39°00' E 002°05'811.4
2016-Dec-01 01:33N 39°06' E 002°12'1111.3
2016-Dec-01 00:33N 39°15' E 002°21'1211.6
2016-Nov-30 23:33N 39°24' E 002°31'1110.9
2016-Nov-30 22:33N 39°33' E 002°39'1 0.6
2016-Nov-30 21:33N 39°33' E 002°38'0 0.0
2016-Nov-30 20:33N 39°33' E 002°38'0 0.0
2016-Nov-30 19:33N 39°33' E 002°38'0 0.0
2016-Nov-30 18:33N 39°33' E 002°38'0 0.0
2016-Nov-30 17:33N 39°33' E 002°38'0 0.0
2016-Nov-30 16:33N 39°33' E 002°38'0 0.0
2016-Nov-30 15:33N 39°33' E 002°38'0 0.0
2016-Nov-30 14:30N 39°33' E 002°38'0 0.0
2016-Nov-30 13:33N 39°33' E 002°38'0 0.0
2016-Nov-30 12:33N 39°33' E 002°38'0 0.0
2016-Nov-30 11:33N 39°33' E 002°38'0 0.0
2016-Nov-30 10:33N 39°33' E 002°38'0 0.0
2016-Nov-30 09:33N 39°33' E 002°38'0 0.0
2016-Nov-30 08:33N 39°33' E 002°38'0 0.0
2016-Nov-30 07:33N 39°33' E 002°38'0 0.0
2016-Nov-30 06:21N 39°33' E 002°38'0 0.0
2016-Nov-30 05:33N 39°33' E 002°38'0 0.0
2016-Nov-30 04:33N 39°33' E 002°38'0 0.0
2016-Nov-30 03:33N 39°33' E 002°38'0 0.0
2016-Nov-30 02:33N 39°33' E 002°38'0 0.0
2016-Nov-30 01:33N 39°33' E 002°38'1 1.5
2016-Nov-30 00:33N 39°32' E 002°39'9 9.4
2016-Nov-29 23:34N 39°25' E 002°31'1111.2
2016-Nov-29 22:34N 39°16' E 002°22'1211.6
2016-Nov-29 21:33N 39°07' E 002°12'1212.1
2016-Nov-29 20:33N 38°58' E 002°03'1212.3
2016-Nov-29 19:33N 38°48' E 001°53'15812.1
2016-Nov-29 06:33N 37°12' W 000°46'10811.9
2016-Nov-28 21:32N 36°17' W 002°42'1512.0
2016-Nov-28 20:15N 36°15' W 003°01'11112.7
2016-Nov-28 11:33N 35°56' W 005°16'3 3.3
2016-Nov-28 10:33N 35°54' W 005°19'0 0.0
2016-Nov-28 09:32N 35°54' W 005°19'0 0.0
2016-Nov-28 08:32N 35°54' W 005°19'0 0.0
2016-Nov-28 07:32N 35°54' W 005°19'0 0.0
2016-Nov-28 06:32N 35°54' W 005°19'0 0.0
2016-Nov-28 05:32N 35°54' W 005°19'0 0.0
2016-Nov-28 04:32N 35°54' W 005°19'0 0.0
2016-Nov-28 03:32N 35°54' W 005°19'0 0.1
2016-Nov-28 02:32N 35°54' W 005°19'0 0.0
2016-Nov-28 01:32N 35°54' W 005°19'0 0.0
2016-Nov-28 00:29N 35°54' W 005°19'0 0.0
2016-Nov-27 23:29N 35°54' W 005°19'0 0.4
2016-Nov-27 22:34N 35°54' W 005°19'2 1.8
2016-Nov-27 21:33N 35°55' W 005°19'0 0.0
2016-Nov-27 20:33N 35°55' W 005°19'0 0.0
2016-Nov-27 19:33N 35°55' W 005°19'0 0.0
2016-Nov-27 18:33N 35°55' W 005°19'0 0.0
2016-Nov-27 17:33N 35°55' W 005°19'0 0.1
2016-Nov-27 16:33N 35°55' W 005°20'0 0.1
2016-Nov-27 15:33N 35°55' W 005°20'0 0.0
2016-Nov-27 14:33N 35°55' W 005°20'0 0.0
2016-Nov-27 13:33N 35°55' W 005°20'0 0.0
2016-Nov-27 12:33N 35°55' W 005°20'0 0.0
2016-Nov-27 11:33N 35°55' W 005°20'0 0.0
2016-Nov-27 10:33N 35°55' W 005°20'6 6.2
2016-Nov-27 09:33N 35°58' W 005°27'  
Track history (hours):
 
Tides and Currents Weather Stations Pressure Air Temp Water Temp Dewpoint Dewpoint Depression Visibility Wind Speed Wind Dir Waves Ship Positions

Super Servant 4

Last reported at 2016-Dec-03 15:32 UTC. Time now 2016-Dec-08 02:10 UTC.
Position N 33°24' W 009°49'.

Length 139 m; beam 32 m.

Type: Cargo ship. MMSI: 306157000.

Date/timePositionNaut miles runAvg speedWind from/ knotsBaromVisibWave heightAir tempDewpointWater temp
2016-Dec-03 15:32N 33°24' W 009°49'9 9.4
2016-Dec-03 14:33N 33°27' W 009°39'9 9.4
2016-Dec-03 13:33N 33°30' W 009°28'24510.6
2016-Dec-02 14:21N 35°59' W 005°31'910.8
2016-Dec-02 13:33N 36°01' W 005°21'12011.5
2016-Dec-02 03:03N 36°21' W 002°54'711.6
2016-Dec-02 02:29N 36°22' W 002°46'1111.7
2016-Dec-02 01:30N 36°23' W 002°32'1212.3
2016-Dec-02 00:32N 36°25' W 002°17'1313.1
2016-Dec-01 23:31N 36°31' W 002°02'2311.0
2016-Dec-01 21:24N 36°45' W 001°39'22311.6
2016-Dec-01 02:14N 39°00' E 002°05'811.4
2016-Dec-01 01:33N 39°06' E 002°12'1111.3
2016-Dec-01 00:33N 39°15' E 002°21'1211.6
2016-Nov-30 23:33N 39°24' E 002°31'1110.9
2016-Nov-30 22:33N 39°33' E 002°39'1 0.6
2016-Nov-30 21:33N 39°33' E 002°38'0 0.0
2016-Nov-30 20:33N 39°33' E 002°38'0 0.0
2016-Nov-30 19:33N 39°33' E 002°38'0 0.0
2016-Nov-30 18:33N 39°33' E 002°38'0 0.0
2016-Nov-30 17:33N 39°33' E 002°38'0 0.0
2016-Nov-30 16:33N 39°33' E 002°38'0 0.0
2016-Nov-30 15:33N 39°33' E 002°38'0 0.0
2016-Nov-30 14:30N 39°33' E 002°38'0 0.0
2016-Nov-30 13:33N 39°33' E 002°38'0 0.0
2016-Nov-30 12:33N 39°33' E 002°38'0 0.0
2016-Nov-30 11:33N 39°33' E 002°38'0 0.0
2016-Nov-30 10:33N 39°33' E 002°38'0 0.0
2016-Nov-30 09:33N 39°33' E 002°38'0 0.0
2016-Nov-30 08:33N 39°33' E 002°38'0 0.0
2016-Nov-30 07:33N 39°33' E 002°38'0 0.0
2016-Nov-30 06:21N 39°33' E 002°38'0 0.0
2016-Nov-30 05:33N 39°33' E 002°38'0 0.0
2016-Nov-30 04:33N 39°33' E 002°38'0 0.0
2016-Nov-30 03:33N 39°33' E 002°38'0 0.0
2016-Nov-30 02:33N 39°33' E 002°38'0 0.0
2016-Nov-30 01:33N 39°33' E 002°38'1 1.5
2016-Nov-30 00:33N 39°32' E 002°39'9 9.4
2016-Nov-29 23:34N 39°25' E 002°31'1111.2
2016-Nov-29 22:34N 39°16' E 002°22'1211.6
2016-Nov-29 21:33N 39°07' E 002°12'1212.1
2016-Nov-29 20:33N 38°58' E 002°03'1212.3
2016-Nov-29 19:33N 38°48' E 001°53'15812.1
2016-Nov-29 06:33N 37°12' W 000°46'10811.9
2016-Nov-28 21:32N 36°17' W 002°42'1512.0
2016-Nov-28 20:15N 36°15' W 003°01'11112.7
2016-Nov-28 11:33N 35°56' W 005°16'3 3.3
2016-Nov-28 10:33N 35°54' W 005°19'0 0.0
2016-Nov-28 09:32N 35°54' W 005°19'0 0.0
2016-Nov-28 08:32N 35°54' W 005°19'0 0.0
2016-Nov-28 07:32N 35°54' W 005°19'0 0.0
2016-Nov-28 06:32N 35°54' W 005°19'0 0.0
2016-Nov-28 05:32N 35°54' W 005°19'0 0.0
2016-Nov-28 04:32N 35°54' W 005°19'0 0.0
2016-Nov-28 03:32N 35°54' W 005°19'0 0.1
2016-Nov-28 02:32N 35°54' W 005°19'0 0.0
2016-Nov-28 01:32N 35°54' W 005°19'0 0.0
2016-Nov-28 00:29N 35°54' W 005°19'0 0.0
2016-Nov-27 23:29N 35°54' W 005°19'0 0.4
2016-Nov-27 22:34N 35°54' W 005°19'2 1.8
2016-Nov-27 21:33N 35°55' W 005°19'0 0.0
2016-Nov-27 20:33N 35°55' W 005°19'0 0.0
2016-Nov-27 19:33N 35°55' W 005°19'0 0.0
2016-Nov-27 18:33N 35°55' W 005°19'0 0.0
2016-Nov-27 17:33N 35°55' W 005°19'0 0.1
2016-Nov-27 16:33N 35°55' W 005°20'0 0.1
2016-Nov-27 15:33N 35°55' W 005°20'0 0.0
2016-Nov-27 14:33N 35°55' W 005°20'0 0.0
2016-Nov-27 13:33N 35°55' W 005°20'0 0.0
2016-Nov-27 12:33N 35°55' W 005°20'0 0.0
2016-Nov-27 11:33N 35°55' W 005°20'0 0.0
2016-Nov-27 10:33N 35°55' W 005°20'6 6.2
2016-Nov-27 09:33N 35°58' W 005°27'  

Dump ship's entire track history